• Join FlightAware (Why Join?)
  • Login
  • US Flag 
 
09:05AM EST


 

Airport Tracker/Info


-or-


 

Live Flight TrackerFlight Track Log ✈ SAS19 ✈ 29-Apr-2012 ✈ ESPA / LLA - ESSA / ARN

Flight Track Log - Related Links

Times and Time Zones

All times are in EDT time to prevent confusion due to time zone crossing. See the SAS19 flight status page for this flight to view local times or setup timezone preferences in your user account.

Time Position Orientation Groundspeed Altitude Reporting Facility
EDT Latitude Longitude Course Direction KTS MPH feet Rate Location/Type
01:30PM 65.5173 22.0986 200° South  Level Estimated
01:31PM 65.4113 22.0058 200° South  Level Estimated
01:32PM 65.3053 21.9137 200° South  Level Estimated
01:33PM 65.1992 21.8223 200° South  Level Estimated
01:34PM 65.0930 21.7316 200° South  Level Estimated
01:35PM 64.9868 21.6417 200° South  Level Estimated
01:36PM 64.8806 21.5525 200° South  Level Estimated
01:37PM 64.7743 21.4640 199° South  Level Estimated
01:38PM 64.6680 21.3761 199° South  Level Estimated
01:39PM 64.5615 21.2890 199° South  Level Estimated
01:40PM 64.4551 21.2025 199° South  Level Estimated
01:41PM 64.3486 21.1168 199° South  Level Estimated
01:42PM 64.2420 21.0316 199° South  Level Estimated
01:43PM 64.1354 20.9471 199° South  Level Estimated
01:44PM 64.0288 20.8633 199° South  Level Estimated
01:45PM 63.9221 20.7801 199° South  Level Estimated
01:46PM 63.8153 20.6976 199° South  Level Estimated
01:47PM 63.7085 20.6156 199° South  Level Estimated
01:48PM 63.6017 20.5343 199° South  Level Estimated
01:49PM 63.4948 20.4536 199° South  Level Estimated
01:50PM 63.3879 20.3735 198° South  Level Estimated
01:51PM 63.2809 20.2940 198° South  Level Estimated
01:52PM 63.1739 20.2151 198° South  Level Estimated
01:53PM 63.0668 20.1367 198° South  Level Estimated
01:54PM 62.9597 20.0590 198° South  Level Estimated
01:55PM 62.8526 19.9818 198° South  Level Estimated
01:56PM 62.7454 19.9051 198° South  Level Estimated
01:57PM 62.6381 19.8290 198° South  Level Estimated
01:58PM 62.5309 19.7535 198° South  Level Estimated
01:59PM 62.4236 19.6785 198° South  Level Estimated
02:00PM 62.3162 19.6040 198° South  Level Estimated
02:01PM 62.2088 19.5301 198° South  Level Estimated
02:02PM 62.1014 19.4567 198° South  Level Estimated
02:03PM 61.9939 19.3838 198° South  Level Estimated
02:04PM 61.8864 19.3114 198° South  Level Estimated
02:05PM 61.7789 19.2396 197° South  Level Estimated
02:06PM 61.6713 19.1682 197° South  Level Estimated
02:07PM 61.5636 19.0973 197° South  Level Estimated
02:08PM 61.4560 19.0269 197° South  Level Estimated
02:09PM 61.3483 18.9570 197° South  Level Estimated
02:10PM 61.2406 18.8876 197° South  Level Estimated
02:11PM 61.1328 18.8187 197° South  Level Estimated
02:12PM 61.0250 18.7502 197° South  Level Estimated
02:13PM 60.9172 18.6822 197° South  Level Estimated
02:14PM 60.8093 18.6147 197° South  Level Estimated
02:15PM 60.7014 18.5476 197° South  Level Estimated
02:16PM 60.5935 18.4809 197° South  Level Estimated
02:17PM 60.4855 18.4147 197° South  Level Estimated
02:18PM 60.3775 18.3489 197° South  Level Estimated
02:19PM 60.2695 18.2836 197° South  Level Estimated
02:20PM 60.1614 18.2187 197° South  Level Estimated
02:21PM 60.0533 18.1542 197° South  Level Estimated
02:22PM 59.9452 18.0902 196° South  Level Estimated
02:23PM 59.8370 18.0265 196° South  Level Estimated
02:24PM 59.7289 17.9633 196° South  Level Estimated
02:25PM 59.6206 17.9005 16° North  Level Estimated
02:26PM 59.7289 17.9633 196° South  Level Estimated
02:27PM 59.6206 17.9005 16° North  Level Estimated
02:28PM 59.7289 17.9633 196° South  Level Estimated
02:29PM 59.6206 17.9005 16° North  Level Estimated
02:30PM 59.7289 17.9633 196° South  Level Estimated
02:31PM 59.6206 17.9005 16° North  Level Estimated
02:32PM 59.7289 17.9633 196° South  Level Estimated
02:33PM 59.6206 17.9005 16° North  Level Estimated
02:34PM 59.7289 17.9633 196° South  Level Estimated
02:35PM 59.6206 17.9005 16° North  Level Estimated
02:36PM 59.7289 17.9633 196° South  Level Estimated
02:37PM 59.6206 17.9005 16° North  Level Estimated
02:38PM 59.7289 17.9633 196° South  Level Estimated
02:39PM 59.6206 17.9005 16° North  Level Estimated
02:40PM 59.7289 17.9633 16° North  Level Estimated